VIJP Airport Information

Runway Information
Runway 09 Length 9177 ft width 148 ft
Elevation 1262 ft Threshold 0 ft Heading 84
Runway 27 Length 9177 ft Width 148 ft
Elevation 1250 ft Threshold 0 ft Heading 264
Runway 15 Length 5223 ft width 148 ft
Elevation 0 ft Threshold 0 ft Heading 144
Runway 33 Length 5223 ft Width 148 ft
Elevation 0 ft Threshold 0 ft Heading 324
Airport Frequencies
Type APP Name APP Frequency 124.3 MHZ
Type ATIS Name ATIS Frequency 126.6 MHZ
Type TWR Name TWR Frequency 125.25 MHZ
Airport Navaids
Type VOR-DME Name Jaipur Frequency 112900 KHZ
Airport Weather Information & NOTAM
ADDS - METARS form results

(1653 UTC 13 July 2020)
Data provider http://aviationweather.gov/metar/data/
 
METAR text: VIJP 131630Z 18004KT 3000 HZ SCT030 SCT100 28/24 Q1001 NOSIG
Conditions at: VIJP (JAIPUR/SANGANER , IN) observed 1630 UTC 13 July 2020
Temperature: 28.0°C (82°F)
Dewpoint: 24.0°C (75°F) [RH = 79%]
Pressure (altimeter): 29.56 inches Hg (1001.0 mb)
Winds: from the S (180 degrees) at 5 MPH (4 knots; 2.1 m/s)
Visibility: 1.86 miles (2.99 km)
Ceiling: at least 12,000 feet AGL
Clouds: scattered clouds at 3000 feet AGL
scattered clouds at 10000 feet AGL
Weather: HZ  (haze)

METAR text: VIJP 131600Z 00000KT 3000 HZ SCT030 SCT100 27/25 Q1000 NOSIG
Conditions at: VIJP (JAIPUR/SANGANER , IN) observed 1600 UTC 13 July 2020
Temperature: 27.0°C (81°F)
Dewpoint: 25.0°C (77°F) [RH = 89%]
Pressure (altimeter): 29.53 inches Hg (1000.0 mb)
Winds: calm
Visibility: 1.86 miles (2.99 km)
Ceiling: at least 12,000 feet AGL
Clouds: scattered clouds at 3000 feet AGL
scattered clouds at 10000 feet AGL
Weather: HZ  (haze)

Forecast for: VIJP (JAIPUR/SANGANER , IN)
Text: TAF VIJP 131400Z 1315/1324 27008KT 3000 HZ SCT030 SCT100
Forecast period: 1500 UTC 13 July 2020 to 0000 UTC 14 July 2020
Forecast type: FROM: standard forecast or significant change
Winds: from the W (270 degrees) at 9 MPH (8 knots; 4.1 m/s)
Visibility: 1.86 miles (2.99 km)
Ceiling: at least 12,000 feet AGL
Clouds: scattered clouds at 3000 feet AGL
scattered clouds at 10000 feet AGL
Weather: HZ  (haze)